Gallup Municipal Airport
KGUP : now visible

Airfield :











YOU CAN JOIN US ON...

 
LOGIN :

Register | Disclaimer

   EN    FR    IT 

 









Legend :    VFR   Marginal VFR   IFR   Intensive IFR   Very Intensive IFR
Visi :
Ceiling :
>= 8 km
>= 3000ft
5 to 8 km
1000 to 3000 ft
1500m to 5 km
500 to 1000 ft
800 to 1500m
200 to 500 ft
< 800m
< 200 ft
Symbols :   Thunderstorms  Fog  Heavy snow  Heavy precipitations  Wind > 20 kt






- Airport Elevation : 6472 ft
- IATA code : GUP


KGUP - Gallup Municipal

CURRENT METAR :
  • 221821Z AUTO 28006KT 10SM FEW019 BKN025 BKN060 06/03 A3006 RMK AO2 T00560028

EXPIRED METARs :
  • 221811Z AUTO 27005KT 10SM FEW020 SCT027 05/03 A3006 RMK AO2 T00500028
  • 221753Z AUTO 28005KT 10SM FEW014 BKN029 04/02 A3007 RMK AO2 SLP180 60003 I6004 T00440022 10056 21011 58001
  • 221749Z AUTO 29006KT 10SM FEW013 BKN029 04/03 A3007 RMK AO2
  • 221716Z AUTO 23006KT 10SM OVC011 05/02 A3008 RMK AO2 T00500022
  • 221653Z AUTO 18005KT 10SM OVC009 04/02 A3008 RMK AO2 SLP189 T00390017

TAF KGUP
Valid from the 22 at 18:00 until the 23 at 18:00 UTC


221731Z 2218/2318 23006KT P6SM BKN011
FM221830 23012KT P6SM FEW011 BKN050
FM222200 20010KT P6SM SCT050 SCT250
FM230300 21010KT 6SM BR VCSH BKN050
PROB30 2303/2306 5SM -SN OVC025
FM230600 21009KT 5SM BR VCSH OVC015
FM231700 22015KT P6SM SCT020 BKN040
KZAB FIR / North America



MET'MAP, your aeronautical weather chart ! - Copyright ORBIFLY December 2007 - Disclaimer

ORBIFLY MET'MAP TEAM :

Programming & Development : Alexandra Zaïnal
Concept & original design : Baudouin d'Aumeries
Assistance for programming : Marc-Olivier Méhu
Technical & hardware support : Manuel Goepfert

Contact : metmap@orbifly.com




SOURCES & CREDITS :

   NOAA       Earth
Advisory